Time;durP1;ratioP1;P1;durP2;ratioP2;P2;SDS_P1;SDS_P2;PMS_P1;PMS_P2;Temp;Humidity;BMP_temperature;BMP_pressure;BME280_temperature;BME280_humidity;BME280_pressure;Samples;Min_cycle;Max_cycle;Signal;HPM_P1;HPM_P2
2022/12/20 00:01:14;;;;;;;5.63;2.58;;;;;;;10.85;78.42;101329.69;5096684;28;20051;-63
2022/12/20 00:03:40;;;;;;;4.03;2.50;;;;;;;10.87;78.26;101330.59;5096893;28;20114;-63
2022/12/20 00:06:05;;;;;;;5.03;2.50;;;;;;;10.89;78.12;101339.47;5096842;28;20436;-63
2022/12/20 00:08:33;;;;;;;4.10;2.67;;;;;;;10.89;78.05;101352.69;5096763;28;20568;-63
2022/12/20 00:11:00;;;;;;;6.47;2.65;;;;;;;10.92;77.74;101326.28;5096702;28;20028;-65
2022/12/20 00:13:26;;;;;;;5.35;2.80;;;;;;;10.98;77.32;101337.84;5096649;28;20028;-64
2022/12/20 00:16:25;;;;;;;3.72;2.50;;;;;;;10.93;77.82;101330.72;5096480;28;20036;-63
2022/12/20 00:18:57;;;;;;;5.53;2.80;;;;;;;10.95;77.12;101327.22;5085604;28;20035;-62
2022/12/20 00:21:22;;;;;;;3.67;2.60;;;;;;;10.95;77.12;101321.94;5096591;28;20031;-62
2022/12/20 00:23:48;;;;;;;4.97;2.80;;;;;;;10.99;77.02;101317.59;5096422;28;20036;-62
2022/12/20 00:26:16;;;;;;;4.60;2.75;;;;;;;11.02;76.65;101318.53;5096176;28;20051;-63
2022/12/20 00:28:43;;;;;;;4.63;2.63;;;;;;;11.01;76.96;101313.22;5096383;28;20081;-63
2022/12/20 00:31:10;;;;;;;4.18;2.65;;;;;;;10.99;77.13;101305.25;5096416;28;20029;-64
2022/12/20 00:33:37;;;;;;;5.57;2.63;;;;;;;11.04;77.06;101307.97;5096090;28;20115;-62
2022/12/20 00:36:05;;;;;;;6.68;2.80;;;;;;;11.05;76.54;101307.13;5096314;28;20032;-63
2022/12/20 00:38:31;;;;;;;5.32;2.70;;;;;;;11.06;76.43;101310.66;5095957;28;20477;-64
2022/12/20 00:41:04;;;;;;;5.70;2.50;;;;;;;11.07;76.90;101304.50;5096079;28;20106;-63
2022/12/20 00:43:29;;;;;;;;;;;;;;;11.14;76.48;101301.97;5096641;28;20028;-62
2022/12/20 00:45:55;;;;;;;5.43;2.40;;;;;;;11.15;76.05;101289.63;5095980;28;19927;-63
2022/12/20 00:48:21;;;;;;;3.58;2.50;;;;;;;11.16;76.40;101284.38;5095885;28;20028;-63
2022/12/20 00:50:46;;;;;;;5.85;2.90;;;;;;;11.20;75.88;101283.53;5095929;28;20070;-63
2022/12/20 00:53:11;;;;;;;4.03;2.70;;;;;;;11.18;75.82;101274.72;5095707;28;20035;-63
2022/12/20 00:55:41;;;;;;;4.63;2.72;;;;;;;11.14;76.73;101272.00;5095850;28;20443;-63
2022/12/20 00:58:07;;;;;;;6.95;2.80;;;;;;;11.16;76.14;101287.00;5095880;28;20103;-63
2022/12/20 01:00:32;;;;;;;3.97;2.55;;;;;;;11.24;75.93;101293.31;5095655;28;20107;-63
2022/12/20 01:02:58;;;;;;;6.90;2.95;;;;;;;11.25;76.07;101280.97;5095639;28;20032;-63
2022/12/20 01:05:23;;;;;;;6.25;2.72;;;;;;;11.23;76.66;101285.34;5095662;28;20161;-63
2022/12/20 01:07:48;;;;;;;5.28;2.50;;;;;;;11.23;77.15;101290.66;5095579;28;20038;-64
2022/12/20 01:10:14;;;;;;;4.07;2.70;;;;;;;11.20;78.54;101290.59;5077307;28;20020;-64
2022/12/20 01:12:39;;;;;;;6.63;2.70;;;;;;;11.17;79.10;101286.13;5095574;28;20032;-65
2022/12/20 01:15:05;;;;;;;7.25;3.13;;;;;;;11.11;80.39;101296.63;5095480;28;20106;-65
2022/12/20 01:17:31;;;;;;;5.10;2.85;;;;;;;11.05;81.21;101296.56;5095567;28;20054;-65
2022/12/20 01:19:56;;;;;;;8.10;2.92;;;;;;;11.00;81.84;101314.06;5095353;28;20020;-65
2022/12/20 01:22:21;;;;;;;5.22;2.90;;;;;;;10.99;81.37;101297.31;5095137;28;20544;-65
2022/12/20 01:24:47;;;;;;;9.25;2.80;;;;;;;10.94;82.73;101300.75;5095273;28;20023;-65
2022/12/20 01:27:12;;;;;;;6.05;2.95;;;;;;;10.89;83.09;101294.50;5077311;28;20047;-66
2022/12/20 01:29:38;;;;;;;5.85;2.60;;;;;;;10.84;84.17;101291.81;5095250;28;20028;-66
2022/12/20 01:32:04;;;;;;;4.65;2.88;;;;;;;10.77;85.58;101298.72;5094999;28;20021;-67
2022/12/20 01:34:29;;;;;;;5.55;2.83;;;;;;;10.76;86.13;101294.31;5076700;28;20043;-67
2022/12/20 01:36:54;;;;;;;7.82;3.20;;;;;;;10.68;87.43;101298.56;5094951;28;20028;-68
2022/12/20 01:39:20;;;;;;;7.57;2.97;;;;;;;10.65;88.37;101305.53;5094975;28;20422;-68
2022/12/20 01:41:46;;;;;;;4.97;2.92;;;;;;;10.60;88.84;101289.59;5094823;28;20473;-68
2022/12/20 01:44:17;;;;;;;7.68;3.25;;;;;;;10.51;89.87;101287.69;5094587;28;20060;-68
2022/12/20 01:46:45;;;;;;;8.77;3.45;;;;;;;10.42;90.94;101274.31;5095022;28;20469;-68
2022/12/20 01:49:12;;;;;;;8.90;3.10;;;;;;;10.39;91.95;101276.91;5094728;28;20032;-68
2022/12/20 01:52:04;;;;;;;6.72;3.47;;;;;;;10.35;92.43;101279.47;5094798;28;20470;-68
2022/12/20 01:55:17;;;;;;;6.15;3.05;;;;;;;10.32;93.37;101276.75;5094841;28;20024;-68
2022/12/20 01:57:50;;;;;;;8.10;3.35;;;;;;;10.30;93.88;101266.16;5069068;28;20069;-68
2022/12/20 02:00:16;;;;;;;6.03;3.30;;;;;;;10.26;94.16;101259.03;5094705;28;20481;-67
2022/12/20 02:02:45;;;;;;;5.35;3.00;;;;;;;10.28;94.51;101262.63;5094497;28;20107;-67
2022/12/20 02:05:13;;;;;;;4.97;3.03;;;;;;;10.23;94.60;101261.59;5094399;28;20040;-67
2022/12/20 02:07:41;;;;;;;7.03;3.08;;;;;;;10.26;95.05;101253.75;5076933;28;20469;-67
2022/12/20 02:10:09;;;;;;;8.05;3.10;;;;;;;10.21;95.00;101243.09;5094391;28;20447;-68
2022/12/20 02:12:40;;;;;;;6.07;2.90;;;;;;;10.24;95.02;101253.75;5094247;28;20478;-68
2022/12/20 02:15:24;;;;;;;5.53;3.03;;;;;;;10.20;95.47;101248.34;5093943;28;20091;-69
2022/12/20 02:18:01;;;;;;;4.38;2.75;;;;;;;10.17;96.15;101235.97;5076180;28;20037;-67
2022/12/20 02:20:50;;;;;;;6.53;2.80;;;;;;;10.16;96.12;101239.47;5094181;28;20024;-67
2022/12/20 02:23:16;;;;;;;5.68;3.15;;;;;;;10.14;96.10;101229.72;5093532;28;20046;-68
2022/12/20 02:26:14;;;;;;;4.30;2.90;;;;;;;10.15;95.90;101213.00;5094184;28;20103;-67
2022/12/20 02:29:14;;;;;;;4.70;2.83;;;;;;;10.19;95.71;101197.28;5093992;28;20358;-67
2022/12/20 02:31:54;;;;;;;4.78;2.92;;;;;;;10.20;95.13;101211.38;5094060;28;20035;-68
2022/12/20 02:34:23;;;;;;;4.88;3.10;;;;;;;10.21;94.85;101206.09;5093710;28;20566;-67
2022/12/20 02:36:49;;;;;;;6.43;2.90;;;;;;;10.22;94.40;101221.09;5093777;28;20039;-67
2022/12/20 02:39:15;;;;;;;5.20;3.10;;;;;;;10.24;94.62;101219.41;5075880;28;20032;-67
2022/12/20 02:42:06;;;;;;;3.95;2.67;;;;;;;10.26;93.82;101195.66;5093512;28;20481;-66
2022/12/20 02:47:24;;;;;;;6.43;2.83;;;;;;;10.38;92.31;101213.47;5094191;28;20420;-67
2022/12/20 02:49:52;;;;;;;6.15;2.95;;;;;;;10.41;92.03;101206.50;5093865;28;20107;-67
2022/12/20 02:52:19;;;;;;;5.80;3.00;;;;;;;10.44;91.25;101205.66;5075413;28;20031;-67
2022/12/20 02:54:45;;;;;;;4.85;2.80;;;;;;;10.47;91.13;101200.44;5093541;28;20032;-67
2022/12/20 02:57:18;;;;;;;6.75;3.05;;;;;;;10.51;90.25;101196.97;5075656;28;20397;-67
2022/12/20 03:00:01;;;;;;;4.78;2.80;;;;;;;10.52;89.76;101193.47;5093497;28;20054;-67
2022/12/20 03:02:27;;;;;;;5.18;2.80;;;;;;;10.55;89.80;101192.63;5093441;28;20031;-67
2022/12/20 03:04:54;;;;;;;5.65;2.60;;;;;;;10.56;89.47;101207.63;5093198;28;20086;-68
2022/12/20 03:07:19;;;;;;;4.72;2.88;;;;;;;10.58;89.12;101192.66;5093467;28;20043;-68
2022/12/20 03:09:45;;;;;;;6.68;2.80;;;;;;;10.62;88.10;101208.63;5093481;28;20021;-66
2022/12/20 03:12:12;;;;;;;5.55;2.60;;;;;;;10.68;87.24;101186.69;5093669;28;20119;-66
2022/12/20 03:14:39;;;;;;;6.45;2.70;;;;;;;10.72;87.58;101181.47;5093574;28;20027;-67
2022/12/20 03:17:05;;;;;;;5.15;2.40;;;;;;;10.73;87.29;101198.19;5093067;28;20039;-68
2022/12/20 03:19:30;;;;;;;5.90;2.60;;;;;;;10.82;86.78;101200.09;5093233;28;20021;-67
2022/12/20 03:21:56;;;;;;;5.70;2.72;;;;;;;10.86;85.91;101186.06;5093235;28;20358;-66
2022/12/20 03:24:22;;;;;;;5.78;2.60;;;;;;;10.89;86.21;101194.94;5093141;28;20024;-66
2022/12/20 03:26:47;;;;;;;4.32;2.60;;;;;;;10.90;86.11;101195.81;5092364;28;20093;-67
2022/12/20 03:29:12;;;;;;;4.45;2.75;;;;;;;10.88;86.20;101179.94;5093025;28;20020;-67
2022/12/20 03:31:38;;;;;;;5.97;2.97;;;;;;;10.95;85.43;101186.19;5093145;28;20031;-70
2022/12/20 03:34:04;;;;;;;6.57;2.53;;;;;;;10.97;85.31;101177.44;5092973;28;20040;-67
2022/12/20 03:36:29;;;;;;;6.50;2.83;;;;;;;11.02;84.86;101172.22;5093033;28;20035;-67
2022/12/20 03:38:55;;;;;;;3.92;2.55;;;;;;;11.02;85.42;101182.78;5092971;28;20024;-68
2022/12/20 03:41:22;;;;;;;4.95;2.42;;;;;;;10.96;85.50;101183.59;5092971;28;20024;-67
2022/12/20 03:43:48;;;;;;;6.10;2.58;;;;;;;11.01;85.15;101188.94;5074989;28;20035;-67
2022/12/20 03:46:14;;;;;;;4.90;2.60;;;;;;;11.00;84.92;101185.38;5092637;28;20097;-66
2022/12/20 03:48:39;;;;;;;4.82;2.60;;;;;;;11.01;85.43;101192.47;5093078;28;20461;-67
2022/12/20 03:51:05;;;;;;;5.20;2.70;;;;;;;11.05;85.59;101201.34;5093003;28;20031;-67
2022/12/20 03:53:30;;;;;;;4.45;2.70;;;;;;;11.08;85.28;101192.56;5092888;28;20031;-67
2022/12/20 03:55:56;;;;;;;4.80;2.60;;;;;;;11.08;84.77;101204.00;5092859;28;20016;-67
2022/12/20 03:58:22;;;;;;;5.03;2.60;;;;;;;11.09;85.37;101218.13;5092944;28;20028;-67
2022/12/20 04:00:47;;;;;;;3.65;2.22;;;;;;;11.15;84.29;101203.25;5074360;28;20489;-66
2022/12/20 04:03:13;;;;;;;4.90;2.65;;;;;;;11.20;84.35;101179.50;5092560;28;20025;-67
2022/12/20 04:05:38;;;;;;;4.80;2.45;;;;;;;11.22;84.42;101178.66;5074644;28;20474;-67
2022/12/20 04:08:04;;;;;;;5.28;2.33;;;;;;;11.19;84.77;101177.72;5092811;28;20121;-67
2022/12/20 04:10:29;;;;;;;6.07;2.67;;;;;;;11.24;84.12;101174.28;5092715;28;21181;-66
2022/12/20 04:12:54;;;;;;;3.33;2.30;;;;;;;11.25;83.86;101191.91;5092749;28;20478;-66
2022/12/20 04:15:20;;;;;;;5.68;2.55;;;;;;;11.27;83.97;101179.59;5057973;28;20021;-67
2022/12/20 04:17:45;;;;;;;5.40;2.80;;;;;;;11.26;84.07;101180.47;5092684;28;20046;-67
2022/12/20 04:20:20;;;;;;;4.93;2.70;;;;;;;11.31;83.53;101187.59;5092646;28;20055;-67
2022/12/20 04:22:47;;;;;;;4.97;2.70;;;;;;;11.29;83.88;101172.56;5092592;28;20028;-66
2022/12/20 04:25:13;;;;;;;6.15;2.72;;;;;;;11.33;83.57;101175.25;5092661;28;20028;-67
2022/12/20 04:27:38;;;;;;;5.78;2.58;;;;;;;11.31;83.67;101177.91;5092513;28;20031;-67
2022/12/20 04:30:04;;;;;;;5.07;2.78;;;;;;;11.33;83.46;101178.78;5074391;28;20028;-67
2022/12/20 04:32:29;;;;;;;7.07;3.00;;;;;;;11.35;83.48;101168.22;5092361;28;20126;-67
2022/12/20 04:34:55;;;;;;;4.82;2.60;;;;;;;11.34;83.81;101177.03;5074382;28;20082;-67
2022/12/20 04:37:20;;;;;;;6.03;2.85;;;;;;;11.33;83.29;101172.63;5093935;28;20073;-67
2022/12/20 04:39:45;;;;;;;9.57;3.00;;;;;;;11.34;83.62;101169.09;5096105;28;20028;-67
2022/12/20 04:42:11;;;;;;;4.88;2.55;;;;;;;11.30;84.05;101162.88;5096214;28;20024;-67
2022/12/20 04:44:36;;;;;;;4.45;2.60;;;;;;;11.33;83.61;101160.28;5077595;28;20051;-67
2022/12/20 04:47:02;;;;;;;7.05;2.67;;;;;;;11.36;84.01;101159.44;5078077;28;20396;-67
2022/12/20 04:49:27;;;;;;;5.88;2.85;;;;;;;11.36;83.53;101160.31;5096009;28;20107;-67
2022/12/20 04:51:52;;;;;;;4.47;2.75;;;;;;;11.36;83.91;101156.78;5096076;28;20056;-67
2022/12/20 04:54:18;;;;;;;5.88;2.47;;;;;;;11.36;83.98;101162.09;5077548;28;20118;-67
2022/12/20 04:56:43;;;;;;;7.80;3.00;;;;;;;11.35;84.32;101162.94;5095966;28;20028;-68
2022/12/20 04:59:10;;;;;;;4.95;2.50;;;;;;;11.34;84.06;101182.31;5095782;28;20518;-68
2022/12/20 05:01:35;;;;;;;6.57;2.60;;;;;;;11.35;84.06;101168.22;5077310;28;20409;-67
2022/12/20 05:04:01;;;;;;;5.03;2.70;;;;;;;11.40;84.15;101169.19;5095664;28;20109;-67
2022/12/20 05:06:26;;;;;;;3.70;2.45;;;;;;;11.43;83.99;101148.03;5095411;28;20060;-67
2022/12/20 05:08:54;;;;;;;4.57;2.38;;;;;;;11.44;84.21;101149.84;5095649;28;20047;-66
2022/12/20 05:11:19;;;;;;;5.25;2.47;;;;;;;11.41;84.41;101148.03;5095563;28;20085;-68
2022/12/20 05:13:44;;;;;;;5.05;2.60;;;;;;;11.45;84.48;101151.59;5095298;28;20614;-67
2022/12/20 05:16:10;;;;;;;7.15;2.70;;;;;;;11.45;84.54;101155.13;5077312;28;20028;-66
2022/12/20 05:18:35;;;;;;;4.75;2.70;;;;;;;11.44;84.40;101152.47;5095330;28;20020;-66
2022/12/20 05:26:36;;;;;;;6.75;2.60;;;;;;;11.41;84.96;101107.44;5095489;28;20066;-67
2022/12/20 05:29:02;;;;;;;3.63;2.47;;;;;;;11.43;84.67;101117.16;5095430;28;20020;-67
2022/12/20 05:31:27;;;;;;;4.22;2.55;;;;;;;11.41;84.88;101115.38;5095035;28;20031;-67
2022/12/20 05:33:53;;;;;;;4.85;2.55;;;;;;;11.39;85.14;101111.81;5095202;28;20039;-67
2022/12/20 05:36:19;;;;;;;3.67;2.60;;;;;;;11.37;85.53;101121.50;5076582;28;20089;-66
2022/12/20 05:38:45;;;;;;;6.45;2.53;;;;;;;11.33;85.83;101107.34;5095029;28;20073;-65
2022/12/20 05:41:10;;;;;;;5.03;2.83;;;;;;;11.33;85.67;101112.66;5095082;28;20021;-67
2022/12/20 05:43:35;;;;;;;4.75;2.50;;;;;;;11.35;85.66;101123.25;5076718;28;20036;-66
2022/12/20 05:46:01;;;;;;;5.03;2.50;;;;;;;11.32;86.00;101110.88;5059849;28;20040;-66
2022/12/20 05:48:26;;;;;;;6.35;2.88;;;;;;;11.29;86.17;101113.47;5093913;28;20442;-67
2022/12/20 05:50:51;;;;;;;4.07;2.45;;;;;;;11.27;85.92;101102.91;5094721;28;20024;-67
2022/12/20 05:53:17;;;;;;;5.43;2.40;;;;;;;11.28;85.98;101098.50;5059765;28;20063;-66
2022/12/20 05:55:44;;;;;;;4.55;2.45;;;;;;;11.26;85.72;101103.78;5094498;28;20500;-68
2022/12/20 05:58:12;;;;;;;5.80;2.40;;;;;;;11.24;85.51;101092.25;5094528;28;20028;-66
2022/12/20 06:00:39;;;;;;;5.50;2.70;;;;;;;11.23;85.88;101086.97;5076832;28;20032;-67
2022/12/20 06:03:05;;;;;;;3.53;2.40;;;;;;;11.23;85.08;101085.22;5094678;28;20028;-67
2022/12/20 06:05:30;;;;;;;4.60;2.50;;;;;;;11.28;84.92;101088.78;5094288;28;20020;-66
2022/12/20 06:07:56;;;;;;;3.28;2.33;;;;;;;11.28;85.01;101094.06;5094408;28;20032;-67
2022/12/20 06:10:21;;;;;;;6.22;2.40;;;;;;;11.25;84.88;101072.00;5094370;28;20024;-66
2022/12/20 06:12:47;;;;;;;5.57;2.38;;;;;;;11.28;84.31;101075.56;5094346;28;20035;-66
2022/12/20 06:15:14;;;;;;;4.25;2.22;;;;;;;11.27;84.34;101060.56;5094471;28;20107;-66
2022/12/20 06:17:39;;;;;;;3.28;2.30;;;;;;;11.23;84.09;101058.75;5094455;28;20032;-66
2022/12/20 06:20:05;;;;;;;5.80;2.50;;;;;;;11.22;84.45;101049.06;5094298;28;20017;-66
2022/12/20 06:22:31;;;;;;;4.38;2.30;;;;;;;11.21;84.04;101063.13;5094139;28;20032;-66
2022/12/20 06:24:56;;;;;;;4.28;2.35;;;;;;;11.20;83.80;101068.41;5094109;28;20547;-67
2022/12/20 06:27:22;;;;;;;4.22;2.72;;;;;;;11.17;84.41;101053.38;5094492;28;20101;-67
2022/12/20 06:29:50;;;;;;;4.68;2.33;;;;;;;11.13;84.14;101055.97;5075945;28;20358;-68
2022/12/20 06:32:17;;;;;;;4.10;2.47;;;;;;;11.12;83.91;101068.31;5093996;28;20032;-67
2022/12/20 06:34:42;;;;;;;3.60;2.50;;;;;;;11.09;84.04;101062.09;5093816;28;20032;-66
2022/12/20 06:37:07;;;;;;;4.97;2.60;;;;;;;11.07;83.93;101058.56;5093911;28;20052;-66
2022/12/20 06:39:33;;;;;;;4.85;2.40;;;;;;;11.05;83.61;101069.13;5093822;28;20465;-66
2022/12/20 06:41:58;;;;;;;4.10;2.10;;;;;;;11.06;83.36;101068.25;5093867;28;20032;-67
2022/12/20 06:44:23;;;;;;;4.35;2.50;;;;;;;11.04;83.26;101067.31;5093734;28;20031;-67
2022/12/20 06:46:49;;;;;;;4.25;2.33;;;;;;;11.07;82.78;101067.38;5093845;28;20040;-66
2022/12/20 06:49:14;;;;;;;4.10;2.40;;;;;;;11.09;83.18;101067.38;5093874;28;20493;-67
2022/12/20 06:51:39;;;;;;;5.10;2.42;;;;;;;11.09;83.16;101064.72;5093668;28;20130;-66
2022/12/20 06:54:05;;;;;;;4.72;2.40;;;;;;;11.09;82.62;101055.06;5093405;28;20126;-66
2022/12/20 06:56:30;;;;;;;6.93;2.63;;;;;;;11.07;82.60;101059.44;5093838;28;20031;-66
2022/12/20 06:58:55;;;;;;;4.75;2.20;;;;;;;11.07;82.80;101055.91;5093605;28;20051;-67
2022/12/20 07:01:21;;;;;;;3.70;2.30;;;;;;;11.04;82.42;101057.63;5093418;28;20469;-66
2022/12/20 07:03:46;;;;;;;6.57;2.50;;;;;;;11.04;82.41;101059.38;5093524;28;20020;-66
2022/12/20 07:06:12;;;;;;;3.88;2.40;;;;;;;11.07;81.62;101069.13;5093263;28;20081;-67
2022/12/20 07:08:37;;;;;;;4.57;2.53;;;;;;;11.11;81.37;101061.25;5093274;28;20052;-66
2022/12/20 07:11:06;;;;;;;6.03;2.45;;;;;;;11.14;81.43;101076.28;5093382;28;20550;-66
2022/12/20 07:13:32;;;;;;;4.10;2.25;;;;;;;11.14;81.34;101068.34;5093256;28;20056;-66
2022/12/20 07:16:01;;;;;;;5.25;2.60;;;;;;;11.15;81.00;101056.88;5093391;28;20413;-66
2022/12/20 07:18:26;;;;;;;5.28;2.30;;;;;;;11.13;81.48;101067.44;5093215;28;20020;-67
2022/12/20 07:20:52;;;;;;;4.07;2.50;;;;;;;11.13;80.89;101072.72;5093248;28;20090;-66
2022/12/20 07:23:17;;;;;;;6.25;2.50;;;;;;;11.12;81.01;101073.59;5093072;28;20489;-66
2022/12/20 07:25:43;;;;;;;5.32;2.30;;;;;;;11.16;80.90;101070.13;5093181;28;20058;-66
2022/12/20 07:28:08;;;;;;;4.82;2.30;;;;;;;11.18;81.08;101064.88;5093138;28;20498;-67
2022/12/20 07:30:34;;;;;;;6.05;2.50;;;;;;;11.22;80.56;101061.38;5093149;28;20138;-67
2022/12/20 07:32:59;;;;;;;4.07;2.38;;;;;;;11.22;80.55;101061.38;5093022;28;20052;-66
2022/12/20 07:35:25;;;;;;;4.85;2.38;;;;;;;11.24;80.02;101076.41;5092957;28;20055;-67
2022/12/20 07:37:51;;;;;;;4.43;2.33;;;;;;;11.25;80.04;101066.69;5074809;28;20013;-67
2022/12/20 07:40:16;;;;;;;4.43;2.40;;;;;;;11.26;79.87;101072.03;5093306;28;20389;-66
2022/12/20 07:42:41;;;;;;;3.70;2.20;;;;;;;11.28;79.53;101064.09;5093111;28;20028;-66
2022/12/20 07:45:07;;;;;;;5.28;2.40;;;;;;;11.31;79.33;101081.78;5092810;28;20044;-66
2022/12/20 07:47:34;;;;;;;4.70;2.40;;;;;;;11.33;79.04;101074.72;5093051;28;20111;-66
2022/12/20 07:50:01;;;;;;;5.97;2.50;;;;;;;11.29;79.48;101077.31;5092941;28;20028;-66
2022/12/20 07:52:28;;;;;;;3.88;2.25;;;;;;;11.36;78.44;101082.72;5092735;28;20048;-67
2022/12/20 07:54:57;;;;;;;3.53;2.30;;;;;;;11.40;78.58;101081.88;5074798;28;20024;-67
2022/12/20 07:57:36;;;;;;;4.93;2.35;;;;;;;11.39;78.26;101083.63;5092816;28;20384;-66
2022/12/20 08:00:03;;;;;;;4.78;2.30;;;;;;;11.42;78.30;101085.41;5092948;28;20023;-66
2022/12/20 08:02:39;;;;;;;4.97;2.55;;;;;;;11.43;78.57;101092.47;5074625;28;20047;-67
2022/12/20 08:05:07;;;;;;;4.93;2.28;;;;;;;11.40;79.16;101092.47;5092598;28;20366;-67
2022/12/20 08:07:33;;;;;;;3.35;2.10;;;;;;;11.38;79.76;101087.13;5074741;28;20055;-67
2022/12/20 08:10:00;;;;;;;6.15;2.28;;;;;;;11.36;80.34;101088.00;5092795;28;20036;-67
2022/12/20 08:12:29;;;;;;;3.38;2.13;;;;;;;11.35;80.41;101095.06;5094473;28;20035;-67
2022/12/20 08:14:56;;;;;;;4.05;2.45;;;;;;;11.31;81.08;101079.13;5096583;28;20028;-66
2022/12/20 08:17:22;;;;;;;3.92;2.30;;;;;;;11.27;82.33;101087.03;5096526;28;20060;-67
2022/12/20 08:19:50;;;;;;;4.50;2.30;;;;;;;11.21;83.24;101080.75;5078597;28;20058;-67
2022/12/20 08:22:16;;;;;;;6.32;2.35;;;;;;;11.17;83.78;101074.53;5096497;28;20076;-68
2022/12/20 08:24:41;;;;;;;4.15;2.33;;;;;;;11.13;83.64;101083.31;5078312;28;20063;-68
2022/12/20 08:27:07;;;;;;;3.92;2.42;;;;;;;11.08;84.78;101090.28;5096423;28;20493;-67
2022/12/20 08:29:32;;;;;;;5.35;2.30;;;;;;;11.08;85.08;101092.06;5096220;28;20478;-68
2022/12/20 08:31:58;;;;;;;4.05;2.35;;;;;;;11.05;85.48;101087.63;5096206;28;20445;-68
2022/12/20 08:34:23;;;;;;;7.45;2.30;;;;;;;11.03;86.01;101089.34;5096025;28;20024;-68
2022/12/20 08:36:49;;;;;;;4.75;2.38;;;;;;;11.01;86.26;101085.81;5096197;28;20111;-68
2022/12/20 08:39:14;;;;;;;4.85;2.20;;;;;;;10.99;86.44;101090.19;5096214;28;20028;-68
2022/12/20 08:41:40;;;;;;;3.67;2.22;;;;;;;10.95;87.17;101080.44;5096369;28;20036;-68
2022/12/20 08:44:05;;;;;;;6.55;2.50;;;;;;;10.93;87.76;101076.91;5096092;28;20020;-67
2022/12/20 08:46:31;;;;;;;4.68;2.40;;;;;;;10.88;88.82;101076.84;5095817;28;20102;-68
2022/12/20 08:48:56;;;;;;;4.20;2.20;;;;;;;10.87;88.05;101085.63;5096103;28;20465;-67
2022/12/20 08:51:21;;;;;;;7.22;2.70;;;;;;;10.85;89.26;101073.25;5096123;28;20114;-67
2022/12/20 08:53:47;;;;;;;4.93;2.50;;;;;;;10.80;89.10;101085.53;5095859;28;20473;-67
2022/12/20 08:56:15;;;;;;;5.15;2.40;;;;;;;10.78;89.13;101064.34;5095842;28;20502;-68
2022/12/20 08:58:42;;;;;;;8.27;2.30;;;;;;;10.76;90.00;101077.56;5095932;28;20032;-68
2022/12/20 09:01:10;;;;;;;6.07;2.33;;;;;;;10.73;90.78;101072.22;5095646;28;20038;-67
2022/12/20 09:03:36;;;;;;;5.70;2.70;;;;;;;10.68;91.53;101080.97;5096076;28;20088;-68
2022/12/20 09:06:06;;;;;;;4.25;2.47;;;;;;;10.62;91.73;101080.84;5095493;28;20525;-68
2022/12/20 09:08:36;;;;;;;5.35;2.40;;;;;;;10.57;92.48;101075.50;5095777;28;20024;-67
2022/12/20 09:11:11;;;;;;;5.40;2.47;;;;;;;10.53;93.14;101061.38;5095622;28;20034;-68
2022/12/20 09:13:37;;;;;;;6.60;2.70;;;;;;;10.54;93.44;101062.28;5095354;28;20032;-67
2022/12/20 09:16:04;;;;;;;5.80;2.60;;;;;;;10.50;93.70;101068.38;5095568;28;20024;-68
2022/12/20 09:18:30;;;;;;;3.80;2.53;;;;;;;10.46;94.18;101063.91;5095591;28;20047;-67
2022/12/20 09:20:58;;;;;;;5.90;2.70;;;;;;;10.47;94.07;101058.63;5095577;28;20020;-68
2022/12/20 09:23:24;;;;;;;6.15;2.72;;;;;;;10.48;94.20;101072.72;5094086;28;20024;-67
2022/12/20 09:25:49;;;;;;;7.80;2.90;;;;;;;10.47;94.55;101073.59;5077244;28;20038;-68
2022/12/20 09:28:15;;;;;;;6.13;2.72;;;;;;;10.49;94.67;101069.22;5095158;28;20031;-67
2022/12/20 09:30:40;;;;;;;5.50;2.88;;;;;;;10.50;94.51;101061.34;5077149;28;20028;-68
2022/12/20 09:33:05;;;;;;;8.27;2.80;;;;;;;10.54;94.28;101059.63;5077092;28;20103;-68
2022/12/20 09:35:32;;;;;;;5.40;2.90;;;;;;;10.59;94.61;101067.63;5094878;28;20028;-68
2022/12/20 09:37:58;;;;;;;6.60;2.90;;;;;;;10.62;94.29;101065.00;5095225;28;20032;-68
2022/12/20 09:40:29;;;;;;;6.03;2.80;;;;;;;10.67;94.38;101064.22;5095149;28;20030;-68
2022/12/20 09:42:55;;;;;;;6.05;2.55;;;;;;;10.65;94.25;101059.75;5076861;28;20032;-68
2022/12/20 09:45:28;;;;;;;6.35;2.60;;;;;;;10.68;94.48;101057.19;5094454;28;20048;-66
2022/12/20 09:47:54;;;;;;;5.75;2.42;;;;;;;10.72;93.49;101061.63;5095084;28;20489;-65
2022/12/20 09:50:26;;;;;;;5.57;2.67;;;;;;;10.73;93.43;101048.44;5095142;28;20034;-67
2022/12/20 09:53:07;;;;;;;4.35;2.30;;;;;;;10.78;92.96;101059.06;5076749;28;20119;-65
2022/12/20 09:55:45;;;;;;;5.60;2.70;;;;;;;10.79;92.51;101060.81;5094930;28;20047;-67
2022/12/20 09:58:30;;;;;;;7.22;2.40;;;;;;;10.80;93.08;101069.69;5094787;28;20055;-67
2022/12/20 10:00:56;;;;;;;5.75;2.67;;;;;;;10.80;92.43;101062.63;5095004;28;20090;-67
2022/12/20 10:03:27;;;;;;;5.32;2.55;;;;;;;10.77;92.60;101052.88;5094658;28;20020;-67
2022/12/20 10:05:57;;;;;;;6.47;2.50;;;;;;;10.80;92.63;101056.47;5094270;28;20035;-67
2022/12/20 10:08:49;;;;;;;4.40;2.47;;;;;;;10.78;92.82;101053.78;5094842;28;20043;-66
2022/12/20 10:11:44;;;;;;;4.78;2.60;;;;;;;10.81;92.36;101040.59;5094547;28;20039;-66
2022/12/20 10:14:50;;;;;;;4.93;2.60;;;;;;;10.85;91.88;101042.44;5094426;28;20118;-66
2022/12/20 10:17:29;;;;;;;4.45;2.63;;;;;;;10.86;91.54;101049.47;5053733;28;20052;-65
2022/12/20 10:19:57;;;;;;;4.30;2.50;;;;;;;10.91;91.86;101047.78;5076214;28;20470;-67
2022/12/20 10:22:29;;;;;;;5.93;2.40;;;;;;;10.93;91.16;101045.16;5094256;28;20045;-67
2022/12/20 10:25:18;;;;;;;3.40;2.30;;;;;;;11.00;91.11;101054.94;5094352;28;20090;-66
2022/12/20 10:27:45;;;;;;;6.20;2.40;;;;;;;11.04;90.36;101046.16;5091691;28;20491;-68
2022/12/20 10:30:17;;;;;;;4.78;2.40;;;;;;;11.06;90.21;101044.44;5093958;28;20032;-67
2022/12/20 10:32:49;;;;;;;5.32;2.65;;;;;;;11.09;90.82;101036.56;5093621;28;20465;-67
2022/12/20 10:35:27;;;;;;;5.55;2.80;;;;;;;11.14;90.76;101031.31;5093235;28;20028;-68
2022/12/20 10:38:16;;;;;;;6.20;2.50;;;;;;;11.19;90.49;101058.69;5075497;28;20537;-67
2022/12/20 10:40:49;;;;;;;5.05;2.53;;;;;;;11.16;90.87;101064.84;5093619;28;20057;-67
2022/12/20 10:43:18;;;;;;;7.43;2.60;;;;;;;11.16;92.06;101042.78;5075919;28;20028;-67
2022/12/20 10:45:53;;;;;;;4.75;2.50;;;;;;;11.09;92.58;101033.91;5075147;28;20408;-68
2022/12/20 10:48:32;;;;;;;5.00;2.78;;;;;;;11.05;93.41;101032.09;5093684;28;20040;-68
2022/12/20 10:51:14;;;;;;;3.75;2.40;;;;;;;11.03;93.72;101025.88;5093689;28;20107;-67
2022/12/20 10:53:54;;;;;;;5.53;2.83;;;;;;;10.97;94.98;101034.66;5093388;28;20070;-68
2022/12/20 10:56:21;;;;;;;4.55;2.70;;;;;;;10.92;95.92;101024.88;5093777;28;20039;-68
2022/12/20 10:59:02;;;;;;;5.13;2.72;;;;;;;10.91;95.86;101023.09;5075080;28;20389;-67
2022/12/20 11:01:34;;;;;;;4.93;2.70;;;;;;;10.85;96.87;101023.03;5064509;28;20028;-67
2022/12/20 11:04:04;;;;;;;4.88;2.65;;;;;;;10.88;96.74;101028.38;5070973;28;20028;-68
2022/12/20 11:06:42;;;;;;;4.15;2.70;;;;;;;10.80;97.95;101035.31;5093335;28;20486;-67
2022/12/20 11:09:21;;;;;;;3.83;2.60;;;;;;;10.76;98.60;101023.81;5093375;28;20039;-67
2022/12/20 11:11:58;;;;;;;8.15;3.05;;;;;;;10.75;98.16;101015.00;5093363;28;20032;-66
2022/12/20 11:14:23;;;;;;;6.20;2.90;;;;;;;10.73;98.66;101015.81;5093474;28;20038;-67
2022/12/20 11:16:51;;;;;;;5.95;3.20;;;;;;;10.70;98.87;101018.44;5093028;28;20031;-67
2022/12/20 11:19:32;;;;;;;5.13;3.10;;;;;;;10.75;98.61;101009.72;5093360;28;20020;-67
2022/12/20 11:22:18;;;;;;;7.57;3.60;;;;;;;10.71;99.55;100999.97;5093320;28;20028;-66
2022/12/20 11:25:05;;;;;;;4.45;2.90;;;;;;;10.70;99.25;101000.81;5093331;28;20035;-67
2022/12/20 11:27:45;;;;;;;6.15;3.55;;;;;;;10.66;100.00;101006.97;5093468;28;20024;-64
2022/12/20 11:30:19;;;;;;;6.75;3.20;;;;;;;10.67;100.00;101010.47;5076285;28;20058;-66
2022/12/20 11:33:25;;;;;;;6.53;4.10;;;;;;;10.65;100.00;101007.78;5093199;28;20055;-67
2022/12/20 11:36:01;;;;;;;8.25;3.50;;;;;;;10.65;100.00;101017.47;5058713;28;20043;-68
2022/12/20 11:39:08;;;;;;;6.03;3.00;;;;;;;10.67;100.00;101014.00;5093287;28;20020;-67
2022/12/20 11:41:58;;;;;;;6.75;3.40;;;;;;;10.67;100.00;101005.19;5011009;28;20026;-67